^^
Station Historical Data
Daily Summary for April 13, 2019 Units:  English    Metric   Both
« Previous Day
Next Day »
Daily Weekly Monthly Yearly Custom
  High: Low: Average:
Temperature: 51.7 °F 20.8 °F 36.8 °F
Dew Point: 25.3 °F 17.6 °F 22.2 °F
Humidity: 89% 29% 60%
Wind Speed: 16.0mph 0.0mph 5.2mph
Wind Gust: 22.0mph - -
Wind- - SW
Pressure: 30.05 in 29.88 in -
Precipitation: 0.00 in    
Historical Graphs
 
 
Tabular Data for April 13, 2019
Time Temperature Dew Point Pressure Wind Wind Speed Wind Gust Humidity Rainfall Rate (Hourly) solar Conditions
00:04 32.6 °F 25.2 °F 29.88 in NW 2.0 mph 6.0 mph 74% 0.00 in 0.00 W/m2
00:09 32.6 °F 24.9 °F 29.88 in NW 3.0 mph 6.0 mph 73% 0.00 in 0.00 W/m2
00:14 32.6 °F 24.9 °F 29.88 in NW 3.0 mph 6.0 mph 73% 0.00 in 0.00 W/m2
00:19 32.5 °F 24.5 °F 29.88 in WNW 4.0 mph 7.0 mph 72% 0.00 in 0.00 W/m2
00:24 32.3 °F 24.3 °F 29.88 in WNW 6.0 mph 7.0 mph 72% 0.00 in 0.00 W/m2
00:29 32.3 °F 24.3 °F 29.88 in WNW 5.0 mph 8.0 mph 72% 0.00 in 0.00 W/m2
00:34 32.4 °F 24.4 °F 29.89 in WNW 6.0 mph 8.0 mph 72% 0.00 in 0.00 W/m2
00:39 32.1 °F 24.1 °F 29.89 in WNW 6.0 mph 8.0 mph 72% 0.00 in 0.00 W/m2
00:44 31.7 °F 23.7 °F 29.89 in WNW 4.0 mph 7.0 mph 72% 0.00 in 0.00 W/m2
00:49 31.1 °F 23.5 °F 29.89 in WNW 4.0 mph 6.0 mph 73% 0.00 in 0.00 W/m2
00:54 30.8 °F 23.8 °F 29.89 in WNW 3.0 mph 6.0 mph 75% 0.00 in 0.00 W/m2
00:59 30.6 °F 23.6 °F 29.89 in WNW 2.0 mph 6.0 mph 75% 0.00 in 0.00 W/m2
01:04 30.4 °F 23.4 °F 29.89 in WNW 1.0 mph 4.0 mph 75% 0.00 in 0.00 W/m2
01:09 30.2 °F 23.2 °F 29.90 in WNW 2.0 mph 3.0 mph 75% 0.00 in 0.00 W/m2
01:14 30.0 °F 23.4 °F 29.90 in WNW 3.0 mph 4.0 mph 76% 0.00 in 0.00 W/m2
01:19 29.9 °F 23.6 °F 29.90 in WNW 3.0 mph 4.0 mph 77% 0.00 in 0.00 W/m2
01:24 30.0 °F 23.7 °F 29.90 in WNW 3.0 mph 5.0 mph 77% 0.00 in 0.00 W/m2
01:29 29.8 °F 23.5 °F 29.91 in WNW 4.0 mph 5.0 mph 77% 0.00 in 0.00 W/m2
01:34 29.6 °F 23.3 °F 29.91 in WNW 3.0 mph 6.0 mph 77% 0.00 in 0.00 W/m2
01:39 29.2 °F 22.9 °F 29.91 in WNW 4.0 mph 6.0 mph 77% 0.00 in 0.00 W/m2
01:44 29.2 °F 23.2 °F 29.91 in WNW 2.0 mph 5.0 mph 78% 0.00 in 0.00 W/m2
01:49 29.2 °F 23.2 °F 29.91 in WNW 4.0 mph 5.0 mph 78% 0.00 in 0.00 W/m2
01:54 29.2 °F 22.9 °F 29.91 in WNW 3.0 mph 5.0 mph 77% 0.00 in 0.00 W/m2
01:59 28.8 °F 22.5 °F 29.91 in WNW 3.0 mph 6.0 mph 77% 0.00 in 0.00 W/m2
02:04 28.4 °F 22.4 °F 29.92 in WNW 5.0 mph 6.0 mph 78% 0.00 in 0.00 W/m2
02:09 28.3 °F 22.6 °F 29.92 in WNW 5.0 mph 6.0 mph 79% 0.00 in 0.00 W/m2
02:14 28.5 °F 22.8 °F 29.92 in WNW 4.0 mph 6.0 mph 79% 0.00 in 0.00 W/m2
02:19 28.6 °F 22.9 °F 29.92 in WNW 2.0 mph 6.0 mph 79% 0.00 in 0.00 W/m2
02:24 28.5 °F 22.8 °F 29.92 in WNW 3.0 mph 4.0 mph 79% 0.00 in 0.00 W/m2
02:29 28.3 °F 22.6 °F 29.93 in WNW 4.0 mph 4.0 mph 79% 0.00 in 0.00 W/m2
02:34 28.1 °F 22.4 °F 29.92 in WNW 3.0 mph 4.0 mph 79% 0.00 in 0.00 W/m2
02:39 27.9 °F 22.2 °F 29.92 in WNW 1.0 mph 4.0 mph 79% 0.00 in 0.00 W/m2
02:44 27.7 °F 22.0 °F 29.92 in WNW 2.0 mph 3.0 mph 79% 0.00 in 0.00 W/m2
02:49 27.6 °F 22.2 °F 29.92 in WNW 2.0 mph 3.0 mph 80% 0.00 in 0.00 W/m2
02:54 27.5 °F 22.4 °F 29.93 in WNW 3.0 mph 4.0 mph 81% 0.00 in 0.00 W/m2
02:59 27.4 °F 22.0 °F 29.93 in WNW 3.0 mph 4.0 mph 80% 0.00 in 0.00 W/m2
03:04 27.2 °F 22.1 °F 29.93 in WNW 4.0 mph 5.0 mph 81% 0.00 in 0.00 W/m2
03:09 27.0 °F 21.9 °F 29.93 in WNW 3.0 mph 5.0 mph 81% 0.00 in 0.00 W/m2
03:14 27.0 °F 21.9 °F 29.94 in WNW 2.0 mph 5.0 mph 81% 0.00 in 0.00 W/m2
03:19 26.9 °F 21.8 °F 29.94 in WNW 4.0 mph 4.0 mph 81% 0.00 in 0.00 W/m2
03:24 26.7 °F 21.7 °F 29.94 in WNW 4.0 mph 4.0 mph 81% 0.00 in 0.00 W/m2
03:29 26.5 °F 21.7 °F 29.94 in WNW 2.0 mph 4.0 mph 82% 0.00 in 0.00 W/m2
03:34 26.1 °F 21.1 °F 29.94 in WNW 3.0 mph 4.0 mph 81% 0.00 in 0.00 W/m2
03:39 25.8 °F 21.1 °F 29.94 in WNW 2.0 mph 4.0 mph 82% 0.00 in 0.00 W/m2
03:44 25.7 °F 21.3 °F 29.94 in WNW 2.0 mph 3.0 mph 83% 0.00 in 0.00 W/m2
03:49 25.3 °F 20.9 °F 29.95 in WNW 3.0 mph 3.0 mph 83% 0.00 in 0.00 W/m2
03:54 24.9 °F 20.5 °F 29.95 in WNW 3.0 mph 4.0 mph 83% 0.00 in 0.00 W/m2
03:59 24.5 °F 20.4 °F 29.95 in WNW 4.0 mph 4.0 mph 84% 0.00 in 0.00 W/m2
04:04 24.1 °F 20.0 °F 29.95 in WNW 4.0 mph 4.0 mph 84% 0.00 in 0.00 W/m2
04:09 23.9 °F 20.0 °F 29.95 in WNW 4.0 mph 4.0 mph 85% 0.00 in 0.00 W/m2
04:14 23.7 °F 20.1 °F 29.95 in WNW 3.0 mph 4.0 mph 86% 0.00 in 0.00 W/m2
04:19 23.6 °F 20.0 °F 29.95 in WNW 4.0 mph 4.0 mph 86% 0.00 in 0.00 W/m2
04:24 23.5 °F 19.9 °F 29.96 in WNW 3.0 mph 5.0 mph 86% 0.00 in 0.00 W/m2
04:29 23.6 °F 20.3 °F 29.96 in WNW 2.0 mph 5.0 mph 87% 0.00 in 0.00 W/m2
04:34 23.7 °F 20.4 °F 29.96 in WNW 3.0 mph 4.0 mph 87% 0.00 in 0.00 W/m2
04:39 23.7 °F 20.4 °F 29.96 in WNW 3.0 mph 4.0 mph 87% 0.00 in 0.00 W/m2
04:44 23.6 °F 20.3 °F 29.96 in WNW 3.0 mph 4.0 mph 87% 0.00 in 0.00 W/m2
04:49 23.5 °F 20.2 °F 29.96 in WNW 3.0 mph 4.0 mph 87% 0.00 in 0.00 W/m2
04:54 23.3 °F 20.0 °F 29.96 in WNW 3.0 mph 4.0 mph 87% 0.00 in 0.00 W/m2
04:59 23.2 °F 19.9 °F 29.96 in WNW 3.0 mph 4.0 mph 87% 0.00 in 0.00 W/m2
05:04 23.2 °F 19.9 °F 29.97 in WNW 3.0 mph 4.0 mph 87% 0.00 in 0.00 W/m2
05:09 23.3 °F 20.3 °F 29.97 in WNW 2.0 mph 4.0 mph 88% 0.00 in 0.00 W/m2
05:14 23.3 °F 20.3 °F 29.97 in WNW 3.0 mph 4.0 mph 88% 0.00 in 0.00 W/m2
05:19 23.2 °F 19.9 °F 29.97 in WNW 3.0 mph 4.0 mph 87% 0.00 in 0.00 W/m2
05:24 23.0 °F 19.7 °F 29.98 in WNW 3.0 mph 4.0 mph 87% 0.00 in 0.00 W/m2
05:29 22.8 °F 19.5 °F 29.98 in WNW 4.0 mph 4.0 mph 87% 0.00 in 0.00 W/m2
05:34 22.6 °F 19.3 °F 29.98 in WNW 4.0 mph 4.0 mph 87% 0.00 in 0.00 W/m2
05:39 22.5 °F 19.2 °F 29.98 in WNW 4.0 mph 4.0 mph 87% 0.00 in 0.00 W/m2
05:44 22.5 °F 19.2 °F 29.98 in WNW 3.0 mph 4.0 mph 87% 0.00 in 0.00 W/m2
05:49 22.5 °F 19.2 °F 29.98 in WNW 3.0 mph 4.0 mph 87% 0.00 in 0.00 W/m2
05:54 22.5 °F 19.2 °F 29.98 in WNW 3.0 mph 4.0 mph 87% 0.00 in 0.00 W/m2
05:59 22.4 °F 19.1 °F 29.99 in WNW 3.0 mph 4.0 mph 87% 0.00 in 0.00 W/m2
06:04 22.2 °F 18.9 °F 29.99 in WNW 4.0 mph 4.0 mph 87% 0.00 in 0.00 W/m2
06:09 22.0 °F 18.7 °F 29.99 in WNW 4.0 mph 5.0 mph 87% 0.00 in 0.00 W/m2
06:14 21.9 °F 18.6 °F 29.99 in WNW 5.0 mph 5.0 mph 87% 0.00 in 0.00 W/m2
06:19 21.7 °F 18.4 °F 30.00 in WNW 3.0 mph 5.0 mph 87% 0.00 in 0.00 W/m2
06:24 21.6 °F 18.3 °F 30.00 in WNW 3.0 mph 5.0 mph 87% 0.00 in 0.00 W/m2
06:29 21.5 °F 18.2 °F 30.00 in WNW 4.0 mph 5.0 mph 87% 0.00 in 0.00 W/m2
06:34 21.4 °F 18.1 °F 30.00 in WNW 4.0 mph 5.0 mph 87% 0.00 in 0.00 W/m2
06:39 21.1 °F 17.8 °F 30.00 in WNW 4.0 mph 5.0 mph 87% 0.00 in 0.00 W/m2
06:44 20.9 °F 17.6 °F 30.01 in WNW 3.0 mph 5.0 mph 87% 0.00 in 0.00 W/m2
06:49 21.0 °F 18.0 °F 30.01 in WNW 3.0 mph 4.0 mph 88% 0.00 in 0.00 W/m2
06:54 20.9 °F 17.9 °F 30.01 in WNW 3.0 mph 4.0 mph 88% 0.00 in 5.00 W/m2
06:59 20.9 °F 17.9 °F 30.01 in WNW 3.0 mph 4.0 mph 88% 0.00 in 7.00 W/m2
07:04 20.8 °F 17.8 °F 30.02 in WNW 3.0 mph 4.0 mph 88% 0.00 in 9.00 W/m2
07:09 20.9 °F 17.9 °F 30.02 in WNW 2.0 mph 4.0 mph 88% 0.00 in 14.00 W/m2
07:14 20.9 °F 17.9 °F 30.02 in WNW 2.0 mph 4.0 mph 88% 0.00 in 19.00 W/m2
07:19 21.1 °F 18.1 °F 30.02 in WNW 2.0 mph 3.0 mph 88% 0.00 in 25.00 W/m2
07:24 21.3 °F 18.3 °F 30.02 in WNW 2.0 mph 3.0 mph 88% 0.00 in 30.00 W/m2
07:29 21.5 °F 18.8 °F 30.02 in WNW 1.0 mph 3.0 mph 89% 0.00 in 35.00 W/m2
07:34 21.7 °F 18.7 °F 30.02 in WNW 1.0 mph 2.0 mph 88% 0.00 in 42.00 W/m2
07:39 22.0 °F 19.0 °F 30.02 in WNW 1.0 mph 2.0 mph 88% 0.00 in 49.00 W/m2
07:44 22.0 °F 19.0 °F 30.02 in WNW 2.0 mph 3.0 mph 88% 0.00 in 54.00 W/m2
07:49 22.1 °F 19.1 °F 30.03 in WNW 2.0 mph 3.0 mph 88% 0.00 in 62.00 W/m2
07:54 22.4 °F 19.4 °F 30.03 in WNW 1.0 mph 3.0 mph 88% 0.00 in 67.00 W/m2
07:59 22.7 °F 19.7 °F 30.03 in WNW 1.0 mph 3.0 mph 88% 0.00 in 72.00 W/m2
08:04 23.0 °F 20.0 °F 30.03 in WNW 2.0 mph 3.0 mph 88% 0.00 in 79.00 W/m2
08:09 23.2 °F 20.2 °F 30.03 in WNW 2.0 mph 4.0 mph 88% 0.00 in 86.00 W/m2
08:14 23.6 °F 20.6 °F 30.03 in WNW 1.0 mph 4.0 mph 88% 0.00 in 97.00 W/m2
08:19 24.0 °F 21.2 °F 30.03 in Calm   3.0 mph 89% 0.00 in 125.00 W/m2
08:24 24.5 °F 21.7 °F 30.03 in Calm   3.0 mph 89% 0.00 in 146.00 W/m2
08:29 25.1 °F 22.3 °F 30.03 in WNW 1.0 mph 2.0 mph 89% 0.00 in 160.00 W/m2
08:34 25.7 °F 22.9 °F 30.04 in Calm   2.0 mph 89% 0.00 in 181.00 W/m2
08:39 26.1 °F 23.0 °F 30.04 in Calm   2.0 mph 88% 0.00 in 190.00 W/m2
08:44 26.5 °F 23.2 °F 30.04 in Calm   2.0 mph 87% 0.00 in 209.00 W/m2
08:49 26.9 °F 23.5 °F 30.04 in WNW 1.0 mph 2.0 mph 87% 0.00 in 200.00 W/m2
08:54 27.5 °F 23.9 °F 30.04 in WNW 2.0 mph 3.0 mph 86% 0.00 in 200.00 W/m2
08:59 28.0 °F 23.8 °F 30.04 in WNW 1.0 mph 3.0 mph 84% 0.00 in 234.00 W/m2
09:04 28.7 °F 23.9 °F 30.04 in WNW 4.0 mph 4.0 mph 82% 0.00 in 253.00 W/m2
09:09 29.3 °F 23.9 °F 30.04 in NNW 4.0 mph 5.0 mph 80% 0.00 in 279.00 W/m2
09:14 29.8 °F 23.8 °F 30.05 in NNW 3.0 mph 5.0 mph 78% 0.00 in 281.00 W/m2
09:19 30.3 °F 23.6 °F 30.04 in NNW 4.0 mph 5.0 mph 76% 0.00 in 306.00 W/m2
09:24 30.8 °F 23.5 °F 30.04 in NNW 2.0 mph 5.0 mph 74% 0.00 in 330.00 W/m2
09:29 31.5 °F 24.2 °F 30.05 in NNW 4.0 mph 5.0 mph 74% 0.00 in 338.00 W/m2
09:34 32.1 °F 24.4 °F 30.04 in NNW 3.0 mph 5.0 mph 73% 0.00 in 343.00 W/m2
09:39 32.6 °F 24.2 °F 30.05 in NNW 1.0 mph 4.0 mph 71% 0.00 in 329.00 W/m2
09:44 33.1 °F 24.4 °F 30.05 in NNW 1.0 mph 4.0 mph 70% 0.00 in 371.00 W/m2
09:49 33.9 °F 24.4 °F 30.05 in NNW 1.0 mph 3.0 mph 68% 0.00 in 390.00 W/m2
09:54 34.1 °F 24.3 °F 30.05 in NNW 1.0 mph 3.0 mph 67% 0.00 in 366.00 W/m2
09:59 35.0 °F 25.1 °F 30.05 in NNW 2.0 mph 4.0 mph 67% 0.00 in 411.00 W/m2
10:04 36.1 °F 25.1 °F 30.05 in North 2.0 mph 4.0 mph 64% 0.00 in 482.00 W/m2
10:09 37.0 °F 24.8 °F 30.05 in North 4.0 mph 4.0 mph 61% 0.00 in 499.00 W/m2
10:14 37.5 °F 24.1 °F 30.05 in North 4.0 mph 4.0 mph 58% 0.00 in 494.00 W/m2
10:19 37.9 °F 23.6 °F 30.05 in North 3.0 mph 4.0 mph 56% 0.00 in 522.00 W/m2
10:24 37.6 °F 23.3 °F 30.05 in WSW 2.0 mph 4.0 mph 56% 0.00 in 561.00 W/m2
10:29 37.9 °F 24.0 °F 30.05 in WNW 3.0 mph 5.0 mph 57% 0.00 in 571.00 W/m2
10:34 38.0 °F 22.8 °F 30.05 in WNW 3.0 mph 5.0 mph 54% 0.00 in 536.00 W/m2
10:39 38.0 °F 22.8 °F 30.05 in West 3.0 mph 5.0 mph 54% 0.00 in 545.00 W/m2
10:44 38.0 °F 22.4 °F 30.05 in West 4.0 mph 5.0 mph 53% 0.00 in 547.00 W/m2
10:49 38.4 °F 22.3 °F 30.05 in West 2.0 mph 6.0 mph 52% 0.00 in 519.00 W/m2
10:54 38.7 °F 21.6 °F 30.05 in West 6.0 mph 6.0 mph 50% 0.00 in 501.00 W/m2
10:59 39.1 °F 22.0 °F 30.05 in West 4.0 mph 6.0 mph 50% 0.00 in 496.00 W/m2
11:04 39.4 °F 22.8 °F 30.05 in WSW 7.0 mph 7.0 mph 51% 0.00 in 515.00 W/m2
11:09 39.6 °F 22.9 °F 30.04 in WSW 1.0 mph 8.0 mph 51% 0.00 in 536.00 W/m2
11:14 40.3 °F 23.6 °F 30.04 in West 6.0 mph 8.0 mph 51% 0.00 in 552.00 W/m2
11:19 40.4 °F 22.7 °F 30.04 in West 2.0 mph 7.0 mph 49% 0.00 in 543.00 W/m2
11:24 40.4 °F 22.7 °F 30.04 in WSW 2.0 mph 7.0 mph 49% 0.00 in 547.00 W/m2
11:29 40.8 °F 22.6 °F 30.04 in WSW 4.0 mph 8.0 mph 48% 0.00 in 621.00 W/m2
11:34 41.2 °F 22.0 °F 30.03 in NW 4.0 mph 8.0 mph 46% 0.00 in 696.00 W/m2
11:39 41.8 °F 21.5 °F 30.03 in Calm   7.0 mph 44% 0.00 in 724.00 W/m2
11:44 42.3 °F 22.4 °F 30.03 in NW 7.0 mph 7.0 mph 45% 0.00 in 738.00 W/m2
11:49 42.7 °F 22.3 °F 30.03 in WNW 4.0 mph 9.0 mph 44% 0.00 in 745.00 W/m2
11:54 42.6 °F 21.6 °F 30.02 in NW 6.0 mph 9.0 mph 43% 0.00 in 754.00 W/m2
11:59 43.1 °F 22.1 °F 30.02 in WNW 3.0 mph 9.0 mph 43% 0.00 in 763.00 W/m2
12:04 43.2 °F 23.3 °F 30.02 in NNW 5.0 mph 9.0 mph 45% 0.00 in 772.00 W/m2
12:09 44.4 °F 23.8 °F 30.02 in North 5.0 mph 8.0 mph 44% 0.00 in 782.00 W/m2
12:14 44.8 °F 21.3 °F 30.02 in WNW 4.0 mph 8.0 mph 39% 0.00 in 789.00 W/m2
12:19 45.3 °F 23.0 °F 30.02 in NNW 5.0 mph 9.0 mph 41% 0.00 in 791.00 W/m2
12:24 45.5 °F 20.7 °F 30.02 in North 6.0 mph 9.0 mph 37% 0.00 in 803.00 W/m2
12:29 46.1 °F 21.9 °F 30.03 in North 2.0 mph 9.0 mph 38% 0.00 in 810.00 W/m2
12:34 46.0 °F 20.5 °F 30.03 in SW 3.0 mph 7.0 mph 36% 0.00 in 816.00 W/m2
12:39 46.4 °F 21.5 °F 30.03 in NW 5.0 mph 9.0 mph 37% 0.00 in 823.00 W/m2
12:44 46.1 °F 21.2 °F 30.03 in NW 3.0 mph 9.0 mph 37% 0.00 in 826.00 W/m2
12:49 46.0 °F 20.5 °F 30.02 in West 1.0 mph 7.0 mph 36% 0.00 in 830.00 W/m2
12:54 46.5 °F 22.8 °F 30.02 in NNE 3.0 mph 6.0 mph 39% 0.00 in 835.00 W/m2
12:59 47.4 °F 21.7 °F 30.02 in East 6.0 mph 6.0 mph 36% 0.00 in 838.00 W/m2
13:04 48.0 °F 22.3 °F 30.02 in North 5.0 mph 11.0 mph 36% 0.00 in 842.00 W/m2
13:09 48.4 °F 21.3 °F 30.02 in NW 4.0 mph 11.0 mph 34% 0.00 in 847.00 W/m2
13:14 47.6 °F 20.6 °F 30.02 in WNW 4.0 mph 9.0 mph 34% 0.00 in 851.00 W/m2
13:19 47.2 °F 21.6 °F 30.02 in NW 4.0 mph 9.0 mph 36% 0.00 in 851.00 W/m2
13:24 47.5 °F 21.2 °F 30.02 in NNE 2.0 mph 5.0 mph 35% 0.00 in 851.00 W/m2
13:29 48.1 °F 22.4 °F 30.02 in East 3.0 mph 7.0 mph 36% 0.00 in 854.00 W/m2
13:34 48.7 °F 22.9 °F 30.02 in ENE 2.0 mph 7.0 mph 36% 0.00 in 854.00 W/m2
13:39 48.7 °F 22.2 °F 30.02 in South 3.0 mph 4.0 mph 35% 0.00 in 856.00 W/m2
13:44 49.1 °F 22.6 °F 30.02 in NE 2.0 mph 4.0 mph 35% 0.00 in 858.00 W/m2
13:49 49.4 °F 22.9 °F 30.02 in SE 4.0 mph 8.0 mph 35% 0.00 in 853.00 W/m2
13:54 49.4 °F 22.2 °F 30.02 in SSE 5.0 mph 9.0 mph 34% 0.00 in 853.00 W/m2
13:59 49.5 °F 21.5 °F 30.02 in ENE 3.0 mph 9.0 mph 33% 0.00 in 854.00 W/m2
14:04 49.3 °F 20.6 °F 30.02 in WSW 1.0 mph 7.0 mph 32% 0.00 in 853.00 W/m2
14:09 49.4 °F 22.2 °F 30.02 in East 10.0 mph 12.0 mph 34% 0.00 in 847.00 W/m2
14:14 48.9 °F 20.3 °F 30.02 in NE 6.0 mph 13.0 mph 32% 0.00 in 847.00 W/m2
14:19 49.2 °F 22.0 °F 30.02 in South 7.0 mph 13.0 mph 34% 0.00 in 846.00 W/m2
14:24 49.4 °F 20.0 °F 30.02 in SSW 1.0 mph 12.0 mph 31% 0.00 in 844.00 W/m2
14:29 49.5 °F 21.5 °F 30.02 in Calm   8.0 mph 33% 0.00 in 838.00 W/m2
14:34 50.2 °F 22.9 °F 30.02 in ENE 3.0 mph 5.0 mph 34% 0.00 in 837.00 W/m2
14:39 50.6 °F 21.8 °F 30.02 in ENE 4.0 mph 9.0 mph 32% 0.00 in 835.00 W/m2
14:44 50.6 °F 21.8 °F 30.02 in SSE 8.0 mph 13.0 mph 32% 0.00 in 838.00 W/m2
14:49 50.5 °F 21.7 °F 30.02 in SSW 5.0 mph 13.0 mph 32% 0.00 in 831.00 W/m2
14:54 50.8 °F 22.0 °F 30.02 in SE 4.0 mph 11.0 mph 32% 0.00 in 824.00 W/m2
14:59 50.9 °F 22.1 °F 30.02 in South 6.0 mph 11.0 mph 32% 0.00 in 784.00 W/m2
15:04 51.0 °F 22.1 °F 30.02 in South 7.0 mph 11.0 mph 32% 0.00 in 798.00 W/m2
15:09 51.0 °F 20.6 °F 30.01 in ESE 1.0 mph 9.0 mph 30% 0.00 in 772.00 W/m2
15:14 50.7 °F 21.1 °F 30.01 in South 3.0 mph 9.0 mph 31% 0.00 in 756.00 W/m2
15:19 50.9 °F 20.5 °F 30.01 in ESE 4.0 mph 9.0 mph 30% 0.00 in 802.00 W/m2
15:24 50.9 °F 22.1 °F 30.00 in East 10.0 mph 13.0 mph 32% 0.00 in 756.00 W/m2
15:29 51.1 °F 23.0 °F 30.00 in SE 9.0 mph 13.0 mph 33% 0.00 in 775.00 W/m2
15:34 50.9 °F 24.2 °F 30.00 in SE 8.0 mph 13.0 mph 35% 0.00 in 712.00 W/m2
15:39 50.7 °F 24.0 °F 30.00 in SE 8.0 mph 13.0 mph 35% 0.00 in 687.00 W/m2
15:44 50.8 °F 23.4 °F 30.00 in South 7.0 mph 16.0 mph 34% 0.00 in 733.00 W/m2
15:49 51.1 °F 23.0 °F 30.00 in SSE 6.0 mph 16.0 mph 33% 0.00 in 751.00 W/m2
15:54 51.3 °F 20.9 °F 30.00 in SSW 7.0 mph 14.0 mph 30% 0.00 in 684.00 W/m2
15:59 51.5 °F 20.2 °F 30.00 in SSW 8.0 mph 15.0 mph 29% 0.00 in 684.00 W/m2
16:04 51.3 °F 20.1 °F 30.00 in SSW 5.0 mph 15.0 mph 29% 0.00 in 724.00 W/m2
16:09 51.3 °F 22.4 °F 30.00 in South 10.0 mph 13.0 mph 32% 0.00 in 715.00 W/m2
16:14 51.7 °F 24.2 °F 30.00 in SSW 13.0 mph 17.0 mph 34% 0.00 in 691.00 W/m2
16:19 51.4 °F 23.2 °F 30.00 in SSE 10.0 mph 17.0 mph 33% 0.00 in 680.00 W/m2
16:24 51.1 °F 23.7 °F 30.00 in South 12.0 mph 17.0 mph 34% 0.00 in 677.00 W/m2
16:29 51.2 °F 23.0 °F 30.00 in WSW 5.0 mph 17.0 mph 33% 0.00 in 666.00 W/m2
16:34 51.2 °F 23.0 °F 29.99 in SSE 10.0 mph 16.0 mph 33% 0.00 in 654.00 W/m2
16:39 50.8 °F 22.7 °F 29.99 in SSE 6.0 mph 16.0 mph 33% 0.00 in 642.00 W/m2
16:44 50.5 °F 21.7 °F 29.99 in South 14.0 mph 19.0 mph 32% 0.00 in 628.00 W/m2
16:49 50.7 °F 21.1 °F 29.99 in South 16.0 mph 19.0 mph 31% 0.00 in 617.00 W/m2
16:54 51.0 °F 22.9 °F 29.99 in SSW 10.0 mph 18.0 mph 33% 0.00 in 605.00 W/m2
16:59 51.6 °F 23.4 °F 29.99 in South 9.0 mph 16.0 mph 33% 0.00 in 596.00 W/m2
17:04 51.6 °F 21.1 °F 29.99 in SSW 7.0 mph 13.0 mph 30% 0.00 in 578.00 W/m2
17:09 51.2 °F 22.3 °F 29.99 in SE 8.0 mph 15.0 mph 32% 0.00 in 564.00 W/m2
17:14 51.0 °F 22.9 °F 29.99 in SSW 7.0 mph 15.0 mph 33% 0.00 in 550.00 W/m2
17:19 51.4 °F 22.5 °F 29.99 in SSE 6.0 mph 13.0 mph 32% 0.00 in 536.00 W/m2
17:24 51.2 °F 23.0 °F 29.98 in SSE 6.0 mph 13.0 mph 33% 0.00 in 524.00 W/m2
17:29 51.5 °F 23.3 °F 29.98 in SSE 6.0 mph 13.0 mph 33% 0.00 in 512.00 W/m2
17:34 51.1 °F 22.2 °F 29.98 in SSW 10.0 mph 16.0 mph 32% 0.00 in 450.00 W/m2
17:39 51.0 °F 22.1 °F 29.98 in SSW 10.0 mph 17.0 mph 32% 0.00 in 461.00 W/m2
17:44 50.7 °F 22.6 °F 29.98 in South 11.0 mph 17.0 mph 33% 0.00 in 482.00 W/m2
17:49 50.5 °F 23.1 °F 29.98 in South 12.0 mph 16.0 mph 34% 0.00 in 93.00 W/m2
17:54 49.4 °F 22.2 °F 29.98 in South 10.0 mph 16.0 mph 34% 0.00 in 77.00 W/m2
17:59 49.0 °F 23.2 °F 29.97 in SSE 9.0 mph 16.0 mph 36% 0.00 in 383.00 W/m2
18:04 49.0 °F 22.5 °F 29.97 in SE 7.0 mph 15.0 mph 35% 0.00 in 415.00 W/m2
18:09 49.5 °F 21.5 °F 29.97 in SSE 8.0 mph 15.0 mph 33% 0.00 in 415.00 W/m2
18:14 50.0 °F 22.7 °F 29.97 in SSE 4.0 mph 15.0 mph 34% 0.00 in 399.00 W/m2
18:19 50.3 °F 22.3 °F 29.96 in SSE 9.0 mph 17.0 mph 33% 0.00 in 355.00 W/m2
18:24 49.9 °F 21.9 °F 29.96 in SE 10.0 mph 17.0 mph 33% 0.00 in 332.00 W/m2
18:29 49.9 °F 22.6 °F 29.96 in SSE 8.0 mph 15.0 mph 34% 0.00 in 366.00 W/m2
18:34 50.0 °F 23.4 °F 29.96 in SSE 10.0 mph 15.0 mph 35% 0.00 in 276.00 W/m2
18:39 49.7 °F 23.1 °F 29.96 in South 11.0 mph 15.0 mph 35% 0.00 in 334.00 W/m2
18:44 49.6 °F 23.0 °F 29.96 in SE 12.0 mph 15.0 mph 35% 0.00 in 322.00 W/m2
18:49 49.5 °F 23.6 °F 29.96 in South 8.0 mph 15.0 mph 36% 0.00 in 297.00 W/m2
18:54 49.9 °F 25.3 °F 29.96 in SSW 5.0 mph 13.0 mph 38% 0.00 in 285.00 W/m2
18:59 50.1 °F 24.8 °F 29.96 in South 12.0 mph 15.0 mph 37% 0.00 in 237.00 W/m2
19:04 49.5 °F 24.9 °F 29.96 in SSE 11.0 mph 16.0 mph 38% 0.00 in 202.00 W/m2
19:09 48.8 °F 24.3 °F 29.95 in SSE 12.0 mph 21.0 mph 38% 0.00 in 179.00 W/m2
19:14 48.1 °F 24.3 °F 29.95 in SSE 10.0 mph 21.0 mph 39% 0.00 in 158.00 W/m2
19:19 47.8 °F 24.0 °F 29.95 in SSW 7.0 mph 16.0 mph 39% 0.00 in 142.00 W/m2
19:24 47.5 °F 24.3 °F 29.95 in SSE 8.0 mph 15.0 mph 40% 0.00 in 123.00 W/m2
19:29 47.2 °F 23.5 °F 29.95 in SSE 10.0 mph 15.0 mph 39% 0.00 in 105.00 W/m2
19:34 47.0 °F 23.9 °F 29.95 in SSE 10.0 mph 13.0 mph 40% 0.00 in 90.00 W/m2
19:39 46.8 °F 23.1 °F 29.95 in South 9.0 mph 15.0 mph 39% 0.00 in 74.00 W/m2
19:44 46.3 °F 23.9 °F 29.96 in South 16.0 mph 22.0 mph 41% 0.00 in 60.00 W/m2
19:49 45.6 °F 23.8 °F 29.96 in South 8.0 mph 22.0 mph 42% 0.00 in 47.00 W/m2
19:54 45.4 °F 24.2 °F 29.96 in South 14.0 mph 21.0 mph 43% 0.00 in 42.00 W/m2
19:59 44.8 °F 23.6 °F 29.96 in South 12.0 mph 19.0 mph 43% 0.00 in 28.00 W/m2
20:04 44.4 °F 24.4 °F 29.95 in South 15.0 mph 19.0 mph 45% 0.00 in 19.00 W/m2
20:09 44.0 °F 24.0 °F 29.95 in South 14.0 mph 17.0 mph 45% 0.00 in 16.00 W/m2
20:14 43.7 °F 24.2 °F 29.95 in SSW 12.0 mph 18.0 mph 46% 0.00 in 14.00 W/m2
20:19 43.3 °F 23.9 °F 29.95 in South 8.0 mph 18.0 mph 46% 0.00 in 11.00 W/m2
20:24 42.8 °F 23.9 °F 29.95 in South 8.0 mph 15.0 mph 47% 0.00 in 7.00 W/m2
20:29 42.3 °F 23.5 °F 29.95 in South 8.0 mph 20.0 mph 47% 0.00 in 5.00 W/m2
20:34 42.1 °F 23.3 °F 29.95 in South 9.0 mph 20.0 mph 47% 0.00 in 0.00 W/m2
20:39 41.8 °F 23.0 °F 29.95 in South 12.0 mph 18.0 mph 47% 0.00 in 0.00 W/m2
20:44 41.5 °F 23.2 °F 29.95 in South 7.0 mph 16.0 mph 48% 0.00 in 0.00 W/m2
20:49 41.2 °F 23.0 °F 29.95 in South 10.0 mph 15.0 mph 48% 0.00 in 0.00 W/m2
20:54 40.9 °F 23.2 °F 29.95 in SSE 9.0 mph 15.0 mph 49% 0.00 in 0.00 W/m2
20:59 40.4 °F 23.2 °F 29.95 in SSE 10.0 mph 13.0 mph 50% 0.00 in 0.00 W/m2
21:04 40.0 °F 23.3 °F 29.95 in SSE 9.0 mph 11.0 mph 51% 0.00 in 0.00 W/m2
21:09 39.7 °F 23.0 °F 29.95 in SSE 10.0 mph 12.0 mph 51% 0.00 in 0.00 W/m2
21:14 39.6 °F 22.9 °F 29.95 in SSE 8.0 mph 12.0 mph 51% 0.00 in 0.00 W/m2
21:19 38.9 °F 22.8 °F 29.95 in SSE 8.0 mph 12.0 mph 52% 0.00 in 0.00 W/m2
21:24 38.6 °F 23.4 °F 29.95 in SSE 7.0 mph 12.0 mph 54% 0.00 in 0.00 W/m2
21:29 38.2 °F 23.0 °F 29.95 in SSE 11.0 mph 12.0 mph 54% 0.00 in 0.00 W/m2
21:34 37.9 °F 23.2 °F 29.95 in SSE 5.0 mph 11.0 mph 55% 0.00 in 0.00 W/m2
21:39 37.5 °F 23.2 °F 29.95 in SE 7.0 mph 11.0 mph 56% 0.00 in 0.00 W/m2
21:44 37.2 °F 22.9 °F 29.95 in SSE 7.0 mph 10.0 mph 56% 0.00 in 0.00 W/m2
21:49 36.8 °F 22.6 °F 29.95 in SSE 4.0 mph 9.0 mph 56% 0.00 in 0.00 W/m2
21:54 36.5 °F 22.7 °F 29.95 in SE 7.0 mph 9.0 mph 57% 0.00 in 0.00 W/m2
21:59 36.2 °F 22.8 °F 29.95 in SE 6.0 mph 9.0 mph 58% 0.00 in 0.00 W/m2
22:04 35.9 °F 22.5 °F 29.95 in SSE 7.0 mph 10.0 mph 58% 0.00 in 0.00 W/m2
22:09 35.5 °F 22.6 °F 29.95 in SE 9.0 mph 11.0 mph 59% 0.00 in 0.00 W/m2
22:14 35.4 °F 22.9 °F 29.95 in SE 8.0 mph 11.0 mph 60% 0.00 in 0.00 W/m2
22:19 35.0 °F 22.9 °F 29.95 in SE 6.0 mph 11.0 mph 61% 0.00 in 0.00 W/m2
22:24 34.8 °F 23.1 °F 29.94 in SE 11.0 mph 12.0 mph 62% 0.00 in 0.00 W/m2
22:29 34.9 °F 23.2 °F 29.95 in SE 9.0 mph 12.0 mph 62% 0.00 in 0.00 W/m2
22:34 34.8 °F 23.1 °F 29.95 in SSE 7.0 mph 12.0 mph 62% 0.00 in 0.00 W/m2
22:39 34.7 °F 23.4 °F 29.95 in SSE 7.0 mph 12.0 mph 63% 0.00 in 0.00 W/m2
22:44 34.5 °F 23.2 °F 29.94 in SSE 8.0 mph 11.0 mph 63% 0.00 in 0.00 W/m2
22:49 34.3 °F 23.4 °F 29.94 in SE 6.0 mph 13.0 mph 64% 0.00 in 0.00 W/m2
22:54 34.3 °F 23.4 °F 29.94 in SSE 11.0 mph 13.0 mph 64% 0.00 in 0.00 W/m2
22:59 34.1 °F 23.6 °F 29.94 in SE 8.0 mph 13.0 mph 65% 0.00 in 0.00 W/m2
23:04 33.7 °F 23.5 °F 29.94 in South 10.0 mph 13.0 mph 66% 0.00 in 0.00 W/m2
23:09 33.4 °F 23.6 °F 29.94 in SE 8.0 mph 13.0 mph 67% 0.00 in 0.00 W/m2
23:14 33.3 °F 23.9 °F 29.94 in SE 8.0 mph 12.0 mph 68% 0.00 in 0.00 W/m2
23:19 33.1 °F 23.7 °F 29.93 in SE 7.0 mph 12.0 mph 68% 0.00 in 0.00 W/m2
23:24 32.7 °F 23.6 °F 29.93 in SSE 7.0 mph 11.0 mph 69% 0.00 in 0.00 W/m2
23:29 32.4 °F 23.4 °F 29.93 in SE 6.0 mph 12.0 mph 69% 0.00 in 0.00 W/m2
23:34 32.2 °F 23.2 °F 29.93 in SE 6.0 mph 12.0 mph 69% 0.00 in 0.00 W/m2
23:39 32.1 °F 23.4 °F 29.92 in SSE 6.0 mph 11.0 mph 70% 0.00 in 0.00 W/m2
23:44 31.9 °F 23.2 °F 29.92 in SSE 7.0 mph 11.0 mph 70% 0.00 in 0.00 W/m2
23:49 31.7 °F 23.4 °F 29.92 in SSE 5.0 mph 10.0 mph 71% 0.00 in 0.00 W/m2
23:54 31.4 °F 23.1 °F 29.92 in SE 8.0 mph 9.0 mph 71% 0.00 in 0.00 W/m2
23:59 31.2 °F 22.9 °F 29.92 in SE 9.0 mph 11.0 mph 71% 0.00 in 0.00 W/m2
Bismarck, North Dakota, USA
Compliments of Weather Underground - 4 mb